sensor_id;sensor_type;location;lat;lon;timestamp;temperature;humidity
46458;DHT22;32155;54.076;12.092;2022-07-01T00:01:00;18.10;99.90
46458;DHT22;32155;54.076;12.092;2022-07-01T00:03:25;18.20;99.90
46458;DHT22;32155;54.076;12.092;2022-07-01T00:05:51;18.20;99.90
46458;DHT22;32155;54.076;12.092;2022-07-01T00:08:16;18.20;99.90
46458;DHT22;32155;54.076;12.092;2022-07-01T00:10:42;18.20;99.90
46458;DHT22;32155;54.076;12.092;2022-07-01T00:13:09;18.20;99.90
46458;DHT22;32155;54.076;12.092;2022-07-01T00:15:35;18.20;99.90
46458;DHT22;32155;54.076;12.092;2022-07-01T00:18:00;18.20;99.90
46458;DHT22;32155;54.076;12.092;2022-07-01T00:20:27;18.20;99.90
46458;DHT22;32155;54.076;12.092;2022-07-01T00:22:55;18.20;99.90
46458;DHT22;32155;54.076;12.092;2022-07-01T00:25:21;18.20;99.90
46458;DHT22;32155;54.076;12.092;2022-07-01T00:27:46;18.20;99.90
46458;DHT22;32155;54.076;12.092;2022-07-01T00:30:14;18.20;99.90
46458;DHT22;32155;54.076;12.092;2022-07-01T00:32:40;18.30;99.90
46458;DHT22;32155;54.076;12.092;2022-07-01T00:35:05;18.20;99.90
46458;DHT22;32155;54.076;12.092;2022-07-01T00:37:31;18.20;99.90
46458;DHT22;32155;54.076;12.092;2022-07-01T00:39:56;18.20;99.90
46458;DHT22;32155;54.076;12.092;2022-07-01T00:42:24;18.20;99.90
46458;DHT22;32155;54.076;12.092;2022-07-01T00:44:50;18.20;99.90
46458;DHT22;32155;54.076;12.092;2022-07-01T00:47:15;18.20;99.90
46458;DHT22;32155;54.076;12.092;2022-07-01T00:49:41;18.20;99.90
46458;DHT22;32155;54.076;12.092;2022-07-01T00:52:07;18.20;99.90
46458;DHT22;32155;54.076;12.092;2022-07-01T00:54:35;18.30;99.90
46458;DHT22;32155;54.076;12.092;2022-07-01T00:57:04;18.30;99.90
46458;DHT22;32155;54.076;12.092;2022-07-01T00:59:30;18.20;99.90
46458;DHT22;32155;54.076;12.092;2022-07-01T01:01:57;18.30;99.90
46458;DHT22;32155;54.076;12.092;2022-07-01T01:04:23;18.20;99.90
46458;DHT22;32155;54.076;12.092;2022-07-01T01:06:51;18.10;99.90
46458;DHT22;32155;54.076;12.092;2022-07-01T01:09:17;18.10;99.90
46458;DHT22;32155;54.076;12.092;2022-07-01T01:11:42;18.00;99.90
46458;DHT22;32155;54.076;12.092;2022-07-01T01:14:08;18.00;99.90
46458;DHT22;32155;54.076;12.092;2022-07-01T01:16:34;18.00;99.90
46458;DHT22;32155;54.076;12.092;2022-07-01T01:19:04;18.10;99.90
46458;DHT22;32155;54.076;12.092;2022-07-01T01:21:29;18.20;99.90
46458;DHT22;32155;54.076;12.092;2022-07-01T01:23:55;18.20;99.90
46458;DHT22;32155;54.076;12.092;2022-07-01T01:26:24;18.20;99.90
46458;DHT22;32155;54.076;12.092;2022-07-01T01:28:53;18.30;99.90
46458;DHT22;32155;54.076;12.092;2022-07-01T01:31:26;18.30;99.90
46458;DHT22;32155;54.076;12.092;2022-07-01T01:33:54;18.30;99.90
46458;DHT22;32155;54.076;12.092;2022-07-01T01:36:19;18.40;99.90
46458;DHT22;32155;54.076;12.092;2022-07-01T01:38:44;18.40;99.90
46458;DHT22;32155;54.076;12.092;2022-07-01T01:41:11;18.30;99.90
46458;DHT22;32155;54.076;12.092;2022-07-01T01:43:36;18.30;99.90
46458;DHT22;32155;54.076;12.092;2022-07-01T01:46:02;18.30;99.90
46458;DHT22;32155;54.076;12.092;2022-07-01T01:48:29;18.40;99.90
46458;DHT22;32155;54.076;12.092;2022-07-01T01:50:54;18.40;99.90
46458;DHT22;32155;54.076;12.092;2022-07-01T01:53:20;18.40;99.90
46458;DHT22;32155;54.076;12.092;2022-07-01T01:55:45;18.30;99.90
46458;DHT22;32155;54.076;12.092;2022-07-01T01:58:11;18.30;99.90
46458;DHT22;32155;54.076;12.092;2022-07-01T02:00:36;18.40;99.90
46458;DHT22;32155;54.076;12.092;2022-07-01T02:03:04;18.40;99.90
46458;DHT22;32155;54.076;12.092;2022-07-01T02:05:30;18.40;99.90
46458;DHT22;32155;54.076;12.092;2022-07-01T02:07:56;18.40;99.90
46458;DHT22;32155;54.076;12.092;2022-07-01T02:10:21;18.30;99.90
46458;DHT22;32155;54.076;12.092;2022-07-01T02:12:47;18.20;99.90
46458;DHT22;32155;54.076;12.092;2022-07-01T02:15:12;18.30;99.90
46458;DHT22;32155;54.076;12.092;2022-07-01T02:17:38;18.30;99.90
46458;DHT22;32155;54.076;12.092;2022-07-01T02:20:04;18.30;99.90
46458;DHT22;32155;54.076;12.092;2022-07-01T02:22:31;18.30;99.90
46458;DHT22;32155;54.076;12.092;2022-07-01T02:24:57;18.30;99.90
46458;DHT22;32155;54.076;12.092;2022-07-01T02:27:22;18.30;99.90
46458;DHT22;32155;54.076;12.092;2022-07-01T02:29:48;18.40;99.90
46458;DHT22;32155;54.076;12.092;2022-07-01T02:32:13;18.30;99.90
46458;DHT22;32155;54.076;12.092;2022-07-01T02:34:39;18.30;99.90
46458;DHT22;32155;54.076;12.092;2022-07-01T02:37:05;18.30;99.90
46458;DHT22;32155;54.076;12.092;2022-07-01T02:39:31;18.30;99.90
46458;DHT22;32155;54.076;12.092;2022-07-01T02:41:57;18.30;99.90
46458;DHT22;32155;54.076;12.092;2022-07-01T02:44:41;18.30;99.90
46458;DHT22;32155;54.076;12.092;2022-07-01T02:47:07;18.20;99.90
46458;DHT22;32155;54.076;12.092;2022-07-01T02:49:32;18.20;99.90
46458;DHT22;32155;54.076;12.092;2022-07-01T02:51:58;18.20;99.90
46458;DHT22;32155;54.076;12.092;2022-07-01T02:54:26;18.30;99.90
46458;DHT22;32155;54.076;12.092;2022-07-01T02:56:54;18.30;99.90
46458;DHT22;32155;54.076;12.092;2022-07-01T02:59:20;18.30;99.90
46458;DHT22;32155;54.076;12.092;2022-07-01T03:01:47;18.40;99.90
46458;DHT22;32155;54.076;12.092;2022-07-01T03:04:13;18.40;99.90
46458;DHT22;32155;54.076;12.092;2022-07-01T03:06:38;18.40;99.90
46458;DHT22;32155;54.076;12.092;2022-07-01T03:09:06;18.50;99.90
46458;DHT22;32155;54.076;12.092;2022-07-01T03:11:32;18.50;99.90
46458;DHT22;32155;54.076;12.092;2022-07-01T03:13:57;18.60;99.90
46458;DHT22;32155;54.076;12.092;2022-07-01T03:16:23;18.60;99.90
46458;DHT22;32155;54.076;12.092;2022-07-01T03:18:48;18.60;99.90
46458;DHT22;32155;54.076;12.092;2022-07-01T03:21:14;18.70;99.90
46458;DHT22;32155;54.076;12.092;2022-07-01T03:23:39;18.70;99.90
46458;DHT22;32155;54.076;12.092;2022-07-01T03:26:07;18.70;99.90
46458;DHT22;32155;54.076;12.092;2022-07-01T03:28:33;18.70;99.90
46458;DHT22;32155;54.076;12.092;2022-07-01T03:31:01;18.70;99.90
46458;DHT22;32155;54.076;12.092;2022-07-01T03:33:27;18.70;99.90
46458;DHT22;32155;54.076;12.092;2022-07-01T03:35:54;18.70;99.90
46458;DHT22;32155;54.076;12.092;2022-07-01T03:38:20;18.70;99.90
46458;DHT22;32155;54.076;12.092;2022-07-01T03:40:48;18.70;99.90
46458;DHT22;32155;54.076;12.092;2022-07-01T03:43:13;18.70;99.90
46458;DHT22;32155;54.076;12.092;2022-07-01T03:45:41;18.70;99.90
46458;DHT22;32155;54.076;12.092;2022-07-01T03:48:07;18.80;99.90
46458;DHT22;32155;54.076;12.092;2022-07-01T03:50:32;18.80;99.90
46458;DHT22;32155;54.076;12.092;2022-07-01T03:52:58;18.90;99.90
46458;DHT22;32155;54.076;12.092;2022-07-01T03:55:42;18.90;99.90
46458;DHT22;32155;54.076;12.092;2022-07-01T03:58:08;19.00;99.90
46458;DHT22;32155;54.076;12.092;2022-07-01T04:00:34;18.90;99.90
46458;DHT22;32155;54.076;12.092;2022-07-01T04:03:00;19.00;99.90
46458;DHT22;32155;54.076;12.092;2022-07-01T04:05:26;19.00;99.90
46458;DHT22;32155;54.076;12.092;2022-07-01T04:07:51;19.00;99.90
46458;DHT22;32155;54.076;12.092;2022-07-01T04:10:17;19.10;99.90
46458;DHT22;32155;54.076;12.092;2022-07-01T04:12:43;19.20;99.90
46458;DHT22;32155;54.076;12.092;2022-07-01T04:15:08;19.30;99.90
46458;DHT22;32155;54.076;12.092;2022-07-01T04:17:34;19.30;99.90
46458;DHT22;32155;54.076;12.092;2022-07-01T04:19:59;19.40;99.90
46458;DHT22;32155;54.076;12.092;2022-07-01T04:22:25;19.40;99.90
46458;DHT22;32155;54.076;12.092;2022-07-01T04:25:01;19.60;99.90
46458;DHT22;32155;54.076;12.092;2022-07-01T04:27:28;19.70;99.90
46458;DHT22;32155;54.076;12.092;2022-07-01T04:29:54;19.70;99.90
46458;DHT22;32155;54.076;12.092;2022-07-01T04:32:19;19.80;99.90
46458;DHT22;32155;54.076;12.092;2022-07-01T04:34:45;19.80;99.90
46458;DHT22;32155;54.076;12.092;2022-07-01T04:37:11;19.80;99.90
46458;DHT22;32155;54.076;12.092;2022-07-01T04:39:37;19.70;99.90
46458;DHT22;32155;54.076;12.092;2022-07-01T04:42:03;19.80;99.90
46458;DHT22;32155;54.076;12.092;2022-07-01T04:44:29;19.80;99.90
46458;DHT22;32155;54.076;12.092;2022-07-01T04:46:55;19.90;99.90
46458;DHT22;32155;54.076;12.092;2022-07-01T04:49:21;20.00;99.90
46458;DHT22;32155;54.076;12.092;2022-07-01T04:51:46;20.00;99.90
46458;DHT22;32155;54.076;12.092;2022-07-01T04:54:12;20.10;99.90
46458;DHT22;32155;54.076;12.092;2022-07-01T04:56:37;20.00;99.90
46458;DHT22;32155;54.076;12.092;2022-07-01T04:59:05;20.20;99.90
46458;DHT22;32155;54.076;12.092;2022-07-01T05:01:31;20.20;99.90
46458;DHT22;32155;54.076;12.092;2022-07-01T05:03:59;20.20;99.90
46458;DHT22;32155;54.076;12.092;2022-07-01T05:06:28;20.30;99.90
46458;DHT22;32155;54.076;12.092;2022-07-01T05:08:53;20.30;99.90
46458;DHT22;32155;54.076;12.092;2022-07-01T05:11:19;20.40;99.90
46458;DHT22;32155;54.076;12.092;2022-07-01T05:13:44;20.50;99.90
46458;DHT22;32155;54.076;12.092;2022-07-01T05:16:10;20.40;99.90
46458;DHT22;32155;54.076;12.092;2022-07-01T05:18:38;20.50;99.90
46458;DHT22;32155;54.076;12.092;2022-07-01T05:21:22;20.60;99.90
46458;DHT22;32155;54.076;12.092;2022-07-01T05:24:09;20.60;99.90
46458;DHT22;32155;54.076;12.092;2022-07-01T05:26:34;20.70;99.90
46458;DHT22;32155;54.076;12.092;2022-07-01T05:29:00;20.60;99.90
46458;DHT22;32155;54.076;12.092;2022-07-01T05:31:25;20.60;99.90
46458;DHT22;32155;54.076;12.092;2022-07-01T05:33:52;20.60;99.90
46458;DHT22;32155;54.076;12.092;2022-07-01T05:36:20;20.70;99.90
46458;DHT22;32155;54.076;12.092;2022-07-01T05:38:46;20.70;99.90
46458;DHT22;32155;54.076;12.092;2022-07-01T05:41:12;20.50;99.90
46458;DHT22;32155;54.076;12.092;2022-07-01T05:43:37;20.60;99.90
46458;DHT22;32155;54.076;12.092;2022-07-01T05:46:03;20.50;99.90
46458;DHT22;32155;54.076;12.092;2022-07-01T05:48:29;20.50;99.90
46458;DHT22;32155;54.076;12.092;2022-07-01T05:50:54;20.50;99.90
46458;DHT22;32155;54.076;12.092;2022-07-01T05:53:20;20.60;99.90
46458;DHT22;32155;54.076;12.092;2022-07-01T05:55:45;20.90;99.90
46458;DHT22;32155;54.076;12.092;2022-07-01T05:58:13;21.30;99.90
46458;DHT22;32155;54.076;12.092;2022-07-01T06:00:39;21.60;99.90
46458;DHT22;32155;54.076;12.092;2022-07-01T06:03:11;21.70;99.90
46458;DHT22;32155;54.076;12.092;2022-07-01T06:05:37;21.80;99.90
46458;DHT22;32155;54.076;12.092;2022-07-01T06:08:03;22.00;99.90
46458;DHT22;32155;54.076;12.092;2022-07-01T06:10:29;22.60;99.90
46458;DHT22;32155;54.076;12.092;2022-07-01T06:12:54;22.90;99.90
46458;DHT22;32155;54.076;12.092;2022-07-01T06:15:20;22.80;99.90
46458;DHT22;32155;54.076;12.092;2022-07-01T06:17:46;23.00;99.90
46458;DHT22;32155;54.076;12.092;2022-07-01T06:20:11;23.10;99.90
46458;DHT22;32155;54.076;12.092;2022-07-01T06:22:39;23.80;99.90
46458;DHT22;32155;54.076;12.092;2022-07-01T06:25:04;23.90;99.90
46458;DHT22;32155;54.076;12.092;2022-07-01T06:27:37;23.40;99.90
46458;DHT22;32155;54.076;12.092;2022-07-01T06:30:05;23.30;99.90
46458;DHT22;32155;54.076;12.092;2022-07-01T06:32:33;23.30;99.90
46458;DHT22;32155;54.076;12.092;2022-07-01T06:34:58;23.20;99.90
46458;DHT22;32155;54.076;12.092;2022-07-01T06:37:24;23.10;99.90
46458;DHT22;32155;54.076;12.092;2022-07-01T06:39:49;23.20;99.90
46458;DHT22;32155;54.076;12.092;2022-07-01T06:42:15;23.30;99.90
46458;DHT22;32155;54.076;12.092;2022-07-01T06:44:41;23.50;99.90
46458;DHT22;32155;54.076;12.092;2022-07-01T06:47:06;23.90;99.90
46458;DHT22;32155;54.076;12.092;2022-07-01T06:49:34;24.10;99.90
46458;DHT22;32155;54.076;12.092;2022-07-01T06:52:00;24.40;99.90
46458;DHT22;32155;54.076;12.092;2022-07-01T06:54:26;24.70;99.90
46458;DHT22;32155;54.076;12.092;2022-07-01T06:56:53;24.50;99.90
46458;DHT22;32155;54.076;12.092;2022-07-01T06:59:19;24.60;99.90
46458;DHT22;32155;54.076;12.092;2022-07-01T07:01:45;24.50;99.90
46458;DHT22;32155;54.076;12.092;2022-07-01T07:04:10;24.20;99.90
46458;DHT22;32155;54.076;12.092;2022-07-01T07:06:38;23.90;99.90
46458;DHT22;32155;54.076;12.092;2022-07-01T07:09:04;23.80;99.90
46458;DHT22;32155;54.076;12.092;2022-07-01T07:11:29;23.80;99.90
46458;DHT22;32155;54.076;12.092;2022-07-01T07:13:57;23.40;99.90
46458;DHT22;32155;54.076;12.092;2022-07-01T07:16:24;22.90;99.90
46458;DHT22;32155;54.076;12.092;2022-07-01T07:18:51;22.60;99.90
46458;DHT22;32155;54.076;12.092;2022-07-01T07:21:17;22.20;99.90
46458;DHT22;32155;54.076;12.092;2022-07-01T07:23:45;21.60;99.90
46458;DHT22;32155;54.076;12.092;2022-07-01T07:26:10;21.00;99.90
46458;DHT22;32155;54.076;12.092;2022-07-01T07:28:36;20.00;99.90
46458;DHT22;32155;54.076;12.092;2022-07-01T07:31:02;19.30;99.90
46458;DHT22;32155;54.076;12.092;2022-07-01T07:33:30;19.00;99.90
46458;DHT22;32155;54.076;12.092;2022-07-01T07:35:56;18.80;99.90
46458;DHT22;32155;54.076;12.092;2022-07-01T07:38:22;19.00;99.90
46458;DHT22;32155;54.076;12.092;2022-07-01T07:40:50;19.30;99.90
46458;DHT22;32155;54.076;12.092;2022-07-01T07:43:18;19.40;99.90
46458;DHT22;32155;54.076;12.092;2022-07-01T07:45:44;19.50;99.90
46458;DHT22;32155;54.076;12.092;2022-07-01T07:48:09;19.50;99.90
46458;DHT22;32155;54.076;12.092;2022-07-01T07:50:37;19.50;99.90
46458;DHT22;32155;54.076;12.092;2022-07-01T07:53:03;19.30;99.90
46458;DHT22;32155;54.076;12.092;2022-07-01T07:55:28;19.40;99.90
46458;DHT22;32155;54.076;12.092;2022-07-01T07:57:56;19.30;99.90
46458;DHT22;32155;54.076;12.092;2022-07-01T08:00:22;19.40;99.90
46458;DHT22;32155;54.076;12.092;2022-07-01T08:02:47;19.40;99.90
46458;DHT22;32155;54.076;12.092;2022-07-01T08:05:13;19.20;99.90
46458;DHT22;32155;54.076;12.092;2022-07-01T08:07:40;19.20;99.90
46458;DHT22;32155;54.076;12.092;2022-07-01T08:10:06;19.40;99.90
46458;DHT22;32155;54.076;12.092;2022-07-01T08:12:32;19.70;99.90
46458;DHT22;32155;54.076;12.092;2022-07-01T08:14:58;20.10;99.90
46458;DHT22;32155;54.076;12.092;2022-07-01T08:17:26;20.50;99.90
46458;DHT22;32155;54.076;12.092;2022-07-01T09:09:45;20.90;99.90
46458;DHT22;32155;54.076;12.092;2022-07-01T09:12:48;21.00;99.90
46458;DHT22;32155;54.076;12.092;2022-07-01T09:18:29;21.50;99.90
46458;DHT22;32155;54.076;12.092;2022-07-01T09:21:33;22.00;99.90
46458;DHT22;32155;54.076;12.092;2022-07-01T09:34:32;26.50;99.90
46458;DHT22;32155;54.076;12.092;2022-07-01T10:05:14;27.80;99.90
46458;DHT22;32155;54.076;12.092;2022-07-01T10:10:49;26.70;99.90
46458;DHT22;32155;54.076;12.092;2022-07-01T10:13:23;26.30;99.90
46458;DHT22;32155;54.076;12.092;2022-07-01T10:16:20;25.80;99.90
46458;DHT22;32155;54.076;12.092;2022-07-01T10:35:26;23.40;99.90
46458;DHT22;32155;54.076;12.092;2022-07-01T10:44:12;22.90;99.90
46458;DHT22;32155;54.076;12.092;2022-07-01T11:05:59;20.90;99.90
46458;DHT22;32155;54.076;12.092;2022-07-01T11:11:41;20.60;99.90
46458;DHT22;32155;54.076;12.092;2022-07-01T11:14:49;20.60;99.90
46458;DHT22;32155;54.076;12.092;2022-07-01T11:27:19;20.30;99.90
46458;DHT22;32155;54.076;12.092;2022-07-01T11:30:00;20.10;99.90
46458;DHT22;32155;54.076;12.092;2022-07-01T11:35:49;20.00;99.90
46458;DHT22;32155;54.076;12.092;2022-07-01T11:38:36;20.10;99.90
46458;DHT22;32155;54.076;12.092;2022-07-01T11:41:22;20.00;99.90
46458;DHT22;32155;54.076;12.092;2022-07-01T11:43:55;20.00;99.90
46458;DHT22;32155;54.076;12.092;2022-07-01T11:46:33;19.90;99.90
46458;DHT22;32155;54.076;12.092;2022-07-01T11:52:26;19.80;99.90
46458;DHT22;32155;54.076;12.092;2022-07-01T11:55:07;19.70;99.90
46458;DHT22;32155;54.076;12.092;2022-07-01T12:00:49;19.50;99.90
46458;DHT22;32155;54.076;12.092;2022-07-01T12:03:53;19.50;99.90
46458;DHT22;32155;54.076;12.092;2022-07-01T12:06:25;19.40;99.90
46458;DHT22;32155;54.076;12.092;2022-07-01T12:08:51;19.40;99.90
46458;DHT22;32155;54.076;12.092;2022-07-01T12:11:19;19.40;99.90
46458;DHT22;32155;54.076;12.092;2022-07-01T12:16:44;19.40;99.90
46458;DHT22;32155;54.076;12.092;2022-07-01T12:19:18;19.40;99.90
46458;DHT22;32155;54.076;12.092;2022-07-01T12:22:05;19.40;99.90
46458;DHT22;32155;54.076;12.092;2022-07-01T12:25:25;19.40;99.90
46458;DHT22;32155;54.076;12.092;2022-07-01T12:40:38;19.40;99.90
46458;DHT22;32155;54.076;12.092;2022-07-01T12:43:42;19.40;99.90
46458;DHT22;32155;54.076;12.092;2022-07-01T12:56:52;20.30;99.90
46458;DHT22;32155;54.076;12.092;2022-07-01T13:24:45;19.60;99.90
46458;DHT22;32155;54.076;12.092;2022-07-01T13:30:12;19.50;99.90
46458;DHT22;32155;54.076;12.092;2022-07-01T13:45:29;20.40;99.90
46458;DHT22;32155;54.076;12.092;2022-07-01T13:47:55;20.60;99.90
46458;DHT22;32155;54.076;12.092;2022-07-01T13:50:25;20.70;99.90
46458;DHT22;32155;54.076;12.092;2022-07-01T13:59:41;20.20;99.90
46458;DHT22;32155;54.076;12.092;2022-07-01T14:02:35;20.40;99.90
46458;DHT22;32155;54.076;12.092;2022-07-01T14:43:37;19.90;99.90
46458;DHT22;32155;54.076;12.092;2022-07-01T15:01:22;19.50;99.90
46458;DHT22;32155;54.076;12.092;2022-07-01T16:19:13;20.00;99.90
46458;DHT22;32155;54.076;12.092;2022-07-01T16:28:14;19.80;99.90
46458;DHT22;32155;54.076;12.092;2022-07-01T16:46:45;19.40;99.90
46458;DHT22;32155;54.076;12.092;2022-07-01T20:39:21;17.20;99.90
46458;DHT22;32155;54.076;12.092;2022-07-01T22:53:21;16.60;99.90
